Time;durP1;ratioP1;P1;durP2;ratioP2;P2;SDS_P1;SDS_P2;PMS_P1;PMS_P2;Temp;Humidity;BMP_temperature;BMP_pressure;BME280_temperature;BME280_humidity;BME280_pressure;Samples;Min_cycle;Max_cycle;Signal;HPM_P1;HPM_P2
2021/11/26 00:00:44;;;;;;;13.80;7.43;;;;;;;2.95;100.00;100660.47;2611526;36;20061;-68
2021/11/26 00:03:15;;;;;;;24.38;8.23;;;;;;;2.97;100.00;100651.47;2611028;36;20073;-69
2021/11/26 00:05:43;;;;;;;16.17;6.85;;;;;;;2.98;100.00;100647.00;2610857;36;20551;-69
2021/11/26 00:08:11;;;;;;;13.15;6.53;;;;;;;3.01;100.00;100640.66;2611342;36;20110;-69
2021/11/26 00:10:40;;;;;;;19.42;6.90;;;;;;;2.99;100.00;100632.78;2611234;31;20038;-69
2021/11/26 00:13:10;;;;;;;14.90;6.95;;;;;;;3.00;100.00;100631.78;2611610;36;20438;-70
2021/11/26 00:15:45;;;;;;;15.00;7.28;;;;;;;3.10;100.00;100626.78;2612025;36;20039;-70
2021/11/26 00:18:19;;;;;;;12.50;5.85;;;;;;;3.03;100.00;100623.63;2611731;36;20030;-69
2021/11/26 00:20:49;;;;;;;14.45;6.22;;;;;;;3.04;100.00;100620.03;2611524;36;20038;-70
2021/11/26 00:23:18;;;;;;;8.98;5.82;;;;;;;3.04;100.00;100614.72;2611541;36;20181;-70
2021/11/26 00:25:49;;;;;;;13.00;5.97;;;;;;;3.09;100.00;100602.00;2612358;36;20492;-70
2021/11/26 00:28:18;;;;;;;11.23;5.32;;;;;;;3.01;100.00;100598.97;2611519;36;20079;-70
2021/11/26 00:30:50;;;;;;;10.02;5.30;;;;;;;3.03;100.00;100597.03;2611637;36;20053;-69
2021/11/26 00:33:18;;;;;;;10.82;5.25;;;;;;;3.05;100.00;100591.63;2611644;36;20053;-70
2021/11/26 00:35:48;;;;;;;9.20;4.87;;;;;;;3.02;100.00;100594.47;2611753;36;20057;-70
2021/11/26 00:38:16;;;;;;;7.88;4.43;;;;;;;3.00;100.00;100591.91;2611340;36;20311;-70
2021/11/26 00:40:45;;;;;;;10.27;4.60;;;;;;;2.91;100.00;100592.50;2611750;36;20042;-69
2021/11/26 00:43:14;;;;;;;12.32;4.60;;;;;;;2.89;100.00;100573.13;2611229;36;20039;-70
2021/11/26 00:45:42;;;;;;;14.55;5.05;;;;;;;2.88;100.00;100566.09;2611650;36;20510;-70
2021/11/26 00:48:13;;;;;;;8.85;4.43;;;;;;;2.78;100.00;100560.47;2611562;36;20118;-70
2021/11/26 00:50:43;;;;;;;7.97;3.90;;;;;;;2.73;100.00;100558.09;2611571;36;20067;-69
2021/11/26 00:53:11;;;;;;;12.55;4.97;;;;;;;2.67;100.00;100547.00;2611775;36;20034;-70
2021/11/26 00:55:39;;;;;;;9.57;3.85;;;;;;;2.65;100.00;100543.56;2611953;36;20614;-69
2021/11/26 00:58:08;;;;;;;11.50;4.47;;;;;;;2.72;100.00;100545.75;2611459;36;20550;-70
2021/11/26 01:00:37;;;;;;;11.80;4.25;;;;;;;2.68;100.00;100544.25;2611926;36;20065;-70
2021/11/26 01:03:06;;;;;;;6.95;3.58;;;;;;;2.62;100.00;100540.16;2611677;36;20034;-70
2021/11/26 01:05:39;;;;;;;9.25;3.55;;;;;;;2.62;100.00;100541.94;2612041;36;20522;-70
2021/11/26 01:08:08;;;;;;;6.10;3.20;;;;;;;2.59;100.00;100537.69;2611329;36;20072;-69
2021/11/26 01:10:37;;;;;;;6.13;3.42;;;;;;;2.65;100.00;100535.59;2611557;36;20053;-69
2021/11/26 01:13:06;;;;;;;6.78;3.40;;;;;;;2.63;100.00;100535.69;2611722;36;20034;-70
2021/11/26 01:15:36;;;;;;;7.85;3.20;;;;;;;2.61;100.00;100527.81;2611491;36;20042;-70
2021/11/26 01:18:06;;;;;;;7.43;3.10;;;;;;;2.63;100.00;100515.31;2611565;36;20034;-69
2021/11/26 01:20:38;;;;;;;6.53;3.03;;;;;;;2.70;100.00;100502.50;2611760;31;20126;-69
2021/11/26 01:23:08;;;;;;;6.60;3.15;;;;;;;2.86;100.00;100502.41;2610677;36;20173;-70
2021/11/26 01:25:37;;;;;;;6.70;2.83;;;;;;;2.89;100.00;100490.72;2611426;36;20042;-68
2021/11/26 01:28:07;;;;;;;5.03;2.92;;;;;;;2.92;100.00;100494.03;2611503;36;20030;-70
2021/11/26 01:30:38;;;;;;;7.22;3.17;;;;;;;2.98;100.00;100487.47;2611018;31;20141;-69
2021/11/26 01:33:11;;;;;;;6.43;3.20;;;;;;;3.03;100.00;100490.69;2611216;36;20057;-70
2021/11/26 01:35:47;;;;;;;7.45;3.25;;;;;;;3.06;100.00;100495.84;2611473;36;20536;-69
2021/11/26 01:38:15;;;;;;;9.48;4.53;;;;;;;3.09;100.00;100482.34;2611177;36;20061;-70
2021/11/26 01:40:45;;;;;;;6.45;3.65;;;;;;;3.18;100.00;100482.69;2611177;36;20101;-69
2021/11/26 01:43:16;;;;;;;8.43;4.07;;;;;;;3.17;100.00;100486.34;2610831;36;20578;-70
2021/11/26 01:45:47;;;;;;;9.27;3.92;;;;;;;3.25;100.00;100481.38;2611503;31;20515;-69
2021/11/26 01:48:17;;;;;;;13.18;4.97;;;;;;;3.22;100.00;100474.41;2611076;36;20603;-69
2021/11/26 01:50:49;;;;;;;10.40;4.47;;;;;;;3.26;100.00;100470.63;2611328;36;20419;-69
2021/11/26 01:53:17;;;;;;;8.32;4.68;;;;;;;3.31;100.00;100467.66;2611283;31;20150;-69
2021/11/26 01:55:46;;;;;;;10.75;4.18;;;;;;;3.28;100.00;100466.06;2611941;31;20534;-70
2021/11/26 01:58:14;;;;;;;11.68;4.45;;;;;;;3.31;100.00;100459.69;2610584;36;20034;-69
2021/11/26 02:00:48;;;;;;;11.63;4.63;;;;;;;3.20;100.00;100448.91;2610582;36;20178;-70
2021/11/26 02:03:18;;;;;;;8.88;4.07;;;;;;;3.18;100.00;100450.78;2611809;36;20587;-70
2021/11/26 02:05:49;;;;;;;11.25;4.55;;;;;;;3.17;100.00;100438.47;2611109;36;20088;-69
2021/11/26 02:08:17;;;;;;;8.40;3.50;;;;;;;3.13;100.00;100433.31;2610910;31;20187;-70
2021/11/26 02:10:46;;;;;;;8.52;4.20;;;;;;;3.12;100.00;100428.09;2611398;36;20121;-69
2021/11/26 02:13:14;;;;;;;12.02;4.43;;;;;;;3.20;100.00;100419.66;2610996;36;20038;-69
2021/11/26 02:15:44;;;;;;;9.80;4.50;;;;;;;3.21;100.00;100431.97;2611022;36;20045;-70
2021/11/26 02:18:17;;;;;;;8.30;4.32;;;;;;;3.16;100.00;100416.31;2611086;31;20619;-70
2021/11/26 02:20:49;;;;;;;8.80;3.90;;;;;;;3.20;100.00;100415.19;2610886;36;20057;-69
2021/11/26 02:23:17;;;;;;;13.25;4.35;;;;;;;3.20;100.00;100406.34;2610909;36;20599;-69
2021/11/26 02:25:46;;;;;;;13.00;4.43;;;;;;;3.24;100.00;100397.19;2611247;36;20082;-68
2021/11/26 02:28:17;;;;;;;11.65;5.13;;;;;;;3.16;100.00;100387.06;2610778;36;20069;-69
2021/11/26 02:30:46;;;;;;;9.57;5.03;;;;;;;3.09;100.00;100388.41;2611484;36;20487;-69
2021/11/26 02:33:17;;;;;;;9.82;4.53;;;;;;;3.14;100.00;100384.50;2611094;36;20057;-70
2021/11/26 02:35:51;;;;;;;10.02;4.80;;;;;;;3.18;100.00;100384.31;2611038;36;20042;-69
2021/11/26 02:38:23;;;;;;;11.48;5.13;;;;;;;3.14;100.00;100373.88;2610723;36;20030;-70
2021/11/26 02:40:52;;;;;;;12.43;5.10;;;;;;;3.29;100.00;100379.16;2611223;36;20055;-69
2021/11/26 02:43:20;;;;;;;12.27;5.45;;;;;;;3.29;100.00;100372.00;2611198;31;20061;-70
2021/11/26 02:45:49;;;;;;;15.43;6.38;;;;;;;3.32;100.00;100368.31;2610655;36;20594;-69
2021/11/26 02:48:17;;;;;;;7.55;4.78;;;;;;;3.33;100.00;100360.22;2611570;31;20552;-68
2021/11/26 02:50:49;;;;;;;11.20;5.87;;;;;;;3.40;100.00;100354.47;2611125;36;20039;-70
2021/11/26 02:53:19;;;;;;;11.40;5.95;;;;;;;3.41;100.00;100348.22;2610940;31;20813;-70
2021/11/26 02:55:47;;;;;;;7.78;5.38;;;;;;;3.40;100.00;100346.50;2610931;36;20141;-69
2021/11/26 02:58:17;;;;;;;8.77;5.60;;;;;;;3.38;100.00;100351.09;2611083;31;20107;-69
2021/11/26 03:00:49;;;;;;;10.13;5.63;;;;;;;3.35;100.00;100346.81;2610952;36;20042;-69
2021/11/26 03:03:17;;;;;;;14.48;5.53;;;;;;;3.35;100.00;100336.19;2611758;36;20030;-70
2021/11/26 03:08:28;;;;;;;12.73;5.30;;;;;;;3.41;100.00;100327.78;2610952;36;20081;-69
2021/11/26 03:10:57;;;;;;;13.52;4.90;;;;;;;3.43;100.00;100322.34;2611071;36;20041;-70
2021/11/26 03:13:26;;;;;;;10.52;4.60;;;;;;;3.49;100.00;100316.63;2610415;36;20150;-69
2021/11/26 03:15:55;;;;;;;13.23;4.40;;;;;;;3.51;100.00;100310.22;2610908;36;20034;-70
2021/11/26 03:21:04;;;;;;;12.30;4.47;;;;;;;3.48;100.00;100289.16;2610259;36;20041;-70
2021/11/26 03:23:35;;;;;;;11.10;4.55;;;;;;;3.47;100.00;100266.16;2610433;31;20597;-70
2021/11/26 03:26:04;;;;;;;7.43;4.38;;;;;;;3.46;100.00;100264.47;2611583;36;20468;-70
2021/11/26 03:28:32;;;;;;;11.90;4.93;;;;;;;3.45;100.00;100261.94;2610797;36;20706;-69
2021/11/26 03:31:00;;;;;;;11.27;4.25;;;;;;;3.45;100.00;100257.44;2610747;36;20237;-70
2021/11/26 03:33:29;;;;;;;13.25;4.72;;;;;;;3.41;100.00;100249.78;2611859;31;20495;-70
2021/11/26 03:35:57;;;;;;;9.10;5.00;;;;;;;3.46;100.00;100248.53;2611669;36;20039;-69
2021/11/26 03:38:25;;;;;;;12.27;4.25;;;;;;;3.42;100.00;100236.38;2610781;36;20042;-69
2021/11/26 03:40:56;;;;;;;12.68;4.40;;;;;;;3.40;100.00;100238.31;2611171;36;20555;-69
2021/11/26 03:43:26;;;;;;;8.10;3.90;;;;;;;3.34;100.00;100228.06;2611602;36;20035;-69
2021/11/26 03:45:55;;;;;;;11.15;3.67;;;;;;;3.30;100.00;100216.78;2611514;36;20070;-69
2021/11/26 03:48:23;;;;;;;11.63;4.57;;;;;;;3.35;100.00;100219.13;2611665;36;20170;-70
2021/11/26 03:50:51;;;;;;;9.13;4.30;;;;;;;3.33;100.00;100215.75;2611099;36;20406;-70
2021/11/26 03:53:20;;;;;;;11.02;3.83;;;;;;;3.29;100.00;100211.59;2611201;36;20537;-70
2021/11/26 03:55:48;;;;;;;11.82;4.15;;;;;;;3.31;100.00;100212.31;2611575;36;20078;-70
2021/11/26 03:58:21;;;;;;;12.70;4.22;;;;;;;3.35;100.00;100197.00;2611587;36;20030;-69
2021/11/26 04:00:50;;;;;;;11.63;3.55;;;;;;;3.36;100.00;100193.38;2612509;36;20589;-69
2021/11/26 04:03:18;;;;;;;7.97;3.20;;;;;;;3.35;100.00;100197.84;2612165;36;20561;-70
2021/11/26 04:05:46;;;;;;;6.50;2.90;;;;;;;3.39;100.00;100196.69;2612074;31;20519;-69
2021/11/26 04:08:15;;;;;;;11.95;3.38;;;;;;;3.33;100.00;100189.16;2629937;36;20030;-69
2021/11/26 04:15:51;;;;;;;7.53;2.28;;;;;;;3.43;100.00;100174.25;2628659;36;20126;-69
2021/11/26 04:18:20;;;;;;;7.32;2.75;;;;;;;3.42;100.00;100161.91;2611524;36;20035;-70
2021/11/26 04:20:48;;;;;;;6.13;2.63;;;;;;;3.41;100.00;100154.84;2611319;36;20094;-69
2021/11/26 04:23:16;;;;;;;8.23;2.53;;;;;;;3.42;100.00;100143.28;2629449;36;20030;-69
2021/11/26 04:25:47;;;;;;;8.07;2.90;;;;;;;3.39;100.00;100135.50;2628784;31;20122;-69
2021/11/26 04:28:15;;;;;;;6.63;2.78;;;;;;;3.41;100.00;100128.25;2611226;36;20499;-71
2021/11/26 04:30:43;;;;;;;5.82;2.35;;;;;;;3.48;100.00;100129.53;2611967;36;20082;-70
2021/11/26 04:33:14;;;;;;;6.72;1.88;;;;;;;3.37;100.00;100120.59;2612372;31;20501;-69
2021/11/26 04:35:42;;;;;;;7.65;2.30;;;;;;;3.37;100.00;100113.47;2611484;36;20590;-70
2021/11/26 04:38:11;;;;;;;4.80;2.03;;;;;;;3.38;100.00;100112.53;2611531;36;20447;-70
2021/11/26 04:40:39;;;;;;;5.88;1.90;;;;;;;3.43;100.00;100113.06;2611625;36;20153;-69
2021/11/26 04:43:08;;;;;;;6.13;1.77;;;;;;;3.37;100.00;100102.00;2611500;36;20065;-69
2021/11/26 04:45:37;;;;;;;10.27;2.20;;;;;;;3.39;100.00;100100.09;2611606;36;20463;-70
2021/11/26 04:48:06;;;;;;;7.32;1.85;;;;;;;3.36;100.00;100095.81;2611501;36;20133;-70
2021/11/26 04:50:37;;;;;;;3.08;1.90;;;;;;;3.32;100.00;100089.84;2611471;36;20068;-69
2021/11/26 04:53:05;;;;;;;5.47;1.90;;;;;;;3.26;100.00;100089.47;2611086;36;20055;-70
2021/11/26 04:55:33;;;;;;;4.50;1.80;;;;;;;3.31;100.00;100079.31;2611608;36;20037;-71
2021/11/26 04:58:02;;;;;;;8.60;1.77;;;;;;;3.27;100.00;100077.88;2611582;36;20645;-70
2021/11/26 05:00:30;;;;;;;6.45;1.70;;;;;;;3.30;100.00;100072.34;2610764;36;20105;-69
2021/11/26 05:02:58;;;;;;;8.07;2.03;;;;;;;3.26;100.00;100061.03;2610873;36;20061;-69
2021/11/26 05:05:27;;;;;;;6.15;1.60;;;;;;;3.23;100.00;100060.44;2611455;36;20563;-70
2021/11/26 05:07:58;;;;;;;7.13;2.50;;;;;;;3.17;100.00;100053.72;2611458;36;20042;-69
2021/11/26 05:10:27;;;;;;;7.90;1.70;;;;;;;3.14;100.00;100052.13;2611806;36;20610;-70
2021/11/26 05:12:57;;;;;;;7.32;2.05;;;;;;;3.09;100.00;100043.63;2629368;36;20448;-69
2021/11/26 05:15:27;;;;;;;14.20;2.55;;;;;;;3.11;100.00;100036.38;2610938;36;20057;-70
2021/11/26 05:17:57;;;;;;;6.68;1.70;;;;;;;3.04;100.00;100034.28;2611845;36;20562;-69
2021/11/26 05:20:26;;;;;;;2.10;1.73;;;;;;;3.04;100.00;100029.81;2611212;31;20046;-70
2021/11/26 05:22:57;;;;;;;8.80;1.80;;;;;;;3.00;100.00;100020.34;2609965;36;20042;-70
2021/11/26 05:25:26;;;;;;;1.98;1.13;;;;;;;2.96;100.00;100016.22;2611781;31;20133;-69
2021/11/26 05:27:56;;;;;;;9.45;1.85;;;;;;;2.95;100.00;100003.88;2611318;36;20042;-69
2021/11/26 05:30:25;;;;;;;4.57;1.60;;;;;;;2.95;100.00;99998.56;2611128;36;20035;-69
2021/11/26 05:32:53;;;;;;;4.88;1.48;;;;;;;2.96;100.00;100005.59;2611571;36;20072;-70
2021/11/26 05:35:22;;;;;;;6.40;1.63;;;;;;;2.91;100.00;99997.91;2611912;36;20125;-70
2021/11/26 05:37:51;;;;;;;7.63;1.97;;;;;;;2.87;100.00;99992.94;2611540;36;20030;-70
2021/11/26 05:40:22;;;;;;;7.33;1.70;;;;;;;2.90;100.00;99990.91;2611434;36;20315;-70
2021/11/26 05:42:50;;;;;;;4.57;1.98;;;;;;;2.84;100.00;99980.69;2611296;36;20038;-69
2021/11/26 05:45:20;;;;;;;5.20;1.73;;;;;;;2.85;100.00;99970.94;2611458;36;20068;-69
2021/11/26 05:47:50;;;;;;;5.03;2.20;;;;;;;2.85;100.00;99970.94;2611264;31;20153;-70
2021/11/26 05:50:21;;;;;;;12.77;2.67;;;;;;;2.84;100.00;99966.56;2611214;36;20041;-71
2021/11/26 05:52:49;;;;;;;9.95;2.28;;;;;;;2.84;100.00;99953.28;2611264;36;20050;-70
2021/11/26 05:55:24;;;;;;;5.63;2.25;;;;;;;2.86;100.00;99956.69;2611450;36;20058;-69
2021/11/26 05:57:53;;;;;;;10.68;3.60;;;;;;;2.86;100.00;99954.03;2611481;36;20157;-69
2021/11/26 06:00:24;;;;;;;6.72;2.95;;;;;;;2.86;100.00;99954.88;2611106;36;20412;-69
2021/11/26 06:02:52;;;;;;;7.78;2.80;;;;;;;2.85;100.00;99939.88;2611265;36;20071;-69
2021/11/26 06:05:21;;;;;;;12.13;3.42;;;;;;;2.84;100.00;99937.34;2610683;36;20130;-69
2021/11/26 06:07:49;;;;;;;11.10;3.65;;;;;;;2.89;100.00;99941.38;2610999;36;20088;-70
2021/11/26 06:10:18;;;;;;;9.63;3.63;;;;;;;2.91;100.00;99935.94;2610908;31;20197;-70
2021/11/26 06:12:51;;;;;;;10.90;4.15;;;;;;;2.91;100.00;99933.28;2611462;36;20611;-69
2021/11/26 06:15:22;;;;;;;8.15;4.35;;;;;;;2.92;100.00;99924.38;2611484;31;20555;-70
2021/11/26 06:17:50;;;;;;;9.27;4.28;;;;;;;2.92;100.00;99913.72;2611292;36;20168;-69
2021/11/26 06:20:22;;;;;;;10.52;4.57;;;;;;;2.96;100.00;99909.91;2611274;36;20076;-69
2021/11/26 06:22:53;;;;;;;13.05;4.78;;;;;;;2.96;100.00;99904.59;2611334;36;20072;-69
2021/11/26 06:25:24;;;;;;;10.48;4.65;;;;;;;3.00;100.00;99905.19;2611427;31;20030;-68
2021/11/26 06:27:56;;;;;;;11.77;4.93;;;;;;;3.05;100.00;99903.03;2611918;36;20463;-69
2021/11/26 06:56:08;;;;;;;10.52;5.38;;;;;;;3.00;100.00;99836.91;2609864;36;20531;-69
2021/11/26 07:01:53;;;;;;;13.05;5.25;;;;;;;2.96;100.00;99824.84;2608938;31;20037;-69
2021/11/26 07:04:22;;;;;;;11.73;4.47;;;;;;;2.94;100.00;99824.09;2610582;36;20035;-69
2021/11/26 07:06:51;;;;;;;11.82;5.00;;;;;;;2.94;100.00;99824.94;2611018;36;20062;-69
2021/11/26 07:09:19;;;;;;;12.95;4.88;;;;;;;2.93;100.00;99814.41;2609664;36;20154;-69
2021/11/26 07:17:25;;;;;;;10.93;4.38;;;;;;;2.87;100.00;99806.88;2599783;36;20038;-69
2021/11/26 07:20:07;;;;;;;13.15;4.03;;;;;;;2.87;100.00;99798.91;2600671;36;20050;-68
2021/11/26 07:22:36;;;;;;;12.18;4.70;;;;;;;2.90;100.00;99807.53;2603050;36;20100;-68
2021/11/26 07:25:06;;;;;;;8.27;4.07;;;;;;;2.89;100.00;99795.19;2599696;36;20030;-68
2021/11/26 07:27:37;;;;;;;13.13;4.30;;;;;;;2.95;100.00;99792.06;2598714;36;20410;-67
2021/11/26 07:36:06;;;;;;;13.90;5.05;;;;;;;2.83;100.00;99779.72;2598829;36;20030;-69
2021/11/26 07:39:02;;;;;;;13.02;4.53;;;;;;;2.89;100.00;99770.44;2598439;36;20040;-68
2021/11/26 07:41:30;;;;;;;8.18;4.57;;;;;;;2.97;100.00;99773.34;2601370;36;20059;-69
2021/11/26 07:44:07;;;;;;;10.75;4.55;;;;;;;2.96;100.00;99761.06;2598351;36;20064;-70
2021/11/26 07:46:38;;;;;;;10.75;4.13;;;;;;;2.97;100.00;99746.78;2598859;31;20026;-70
2021/11/26 07:51:56;;;;;;;14.00;4.30;;;;;;;3.06;100.00;99738.13;2615681;36;20108;-69
2021/11/26 09:39:53;;;;;;;14.80;4.50;;;;;;;3.94;100.00;99522.88;2608491;36;20042;-69
2021/11/26 11:19:29;;;;;;;9.93;3.35;;;;;;;4.80;100.00;99187.78;2613189;36;20040;-69
2021/11/26 11:22:04;;;;;;;12.02;4.03;;;;;;;4.80;100.00;99182.44;2614931;31;20510;-69
2021/11/26 11:33:27;;;;;;;8.57;3.08;;;;;;;4.97;100.00;99161.38;2613858;38;20408;-71
2021/11/26 11:36:01;;;;;;;10.10;3.83;;;;;;;4.95;100.00;99147.34;2615493;36;20639;-71
2021/11/26 11:48:05;;;;;;;8.27;3.75;;;;;;;5.00;100.00;99110.44;2614129;36;20019;-71
2021/11/26 11:53:44;;;;;;;9.52;3.97;;;;;;;4.94;100.00;99097.69;2614979;31;20037;-70
2021/11/26 12:08:57;;;;;;;13.65;3.58;;;;;;;4.79;100.00;99054.66;2610898;36;20015;-72
2021/11/26 12:18:09;;;;;;;9.75;3.03;;;;;;;4.77;100.00;99014.81;2610739;47;20046;-72
2021/11/26 13:00:32;;;;;;;8.80;4.18;;;;;;;4.26;100.00;98898.84;2611889;36;20562;-70
2021/11/26 13:18:59;;;;;;;9.27;5.28;;;;;;;3.81;100.00;98847.94;2627976;31;20038;-70
2021/11/26 13:24:57;;;;;;;8.98;5.32;;;;;;;3.75;100.00;98840.50;2609848;36;20466;-70
2021/11/26 13:28:03;;;;;;;7.85;5.50;;;;;;;3.74;100.00;98838.84;2610287;36;20142;-71
2021/11/26 13:42:02;;;;;;;9.48;5.70;;;;;;;3.60;100.00;98789.56;2603475;36;20030;-70
2021/11/26 13:44:30;;;;;;;9.35;5.70;;;;;;;3.56;100.00;98774.03;2611577;36;20035;-70
2021/11/26 13:47:42;;;;;;;14.95;6.72;;;;;;;3.55;100.00;98775.88;2611227;36;20106;-69
2021/11/26 18:32:36;;;;;;;47.30;33.08;;;;;;;3.94;100.00;98378.38;2607997;54;20049;-70
2021/11/26 18:35:39;;;;;;;58.65;36.08;;;;;;;4.02;100.00;98392.59;2645450;36;20550;-71
2021/11/26 18:38:37;;;;;;;39.30;25.25;;;;;;;4.05;100.00;98388.78;2647380;36;20642;-72
2021/11/26 18:41:32;;;;;;;40.30;25.57;;;;;;;4.06;100.00;98394.94;2629473;36;20053;-71
2021/11/26 18:44:29;;;;;;;44.95;28.27;;;;;;;4.12;100.00;98402.28;2628992;36;20042;-72
2021/11/26 18:47:25;;;;;;;48.03;31.52;;;;;;;4.07;100.00;98392.13;2647318;36;20587;-71
2021/11/26 18:50:30;;;;;;;44.45;27.27;;;;;;;4.08;100.00;98398.25;2628383;36;20043;-70
2021/11/26 18:53:34;;;;;;;42.00;24.48;;;;;;;4.11;100.00;98396.16;2646485;36;20034;-71
2021/11/26 18:56:30;;;;;;;44.38;25.65;;;;;;;4.11;100.00;98395.28;2628773;36;20492;-71
2021/11/26 18:59:30;;;;;;;36.63;23.88;;;;;;;4.07;100.00;98381.47;2646800;36;20063;-72
2021/11/26 19:02:27;;;;;;;41.53;26.88;;;;;;;4.11;100.00;98392.63;2628772;36;20567;-73
2021/11/26 19:17:54;;;;;;;36.05;23.13;;;;;;;4.15;100.00;98392.19;2609842;36;20030;-70
2021/11/26 19:20:25;;;;;;;36.20;23.50;;;;;;;4.17;100.00;98390.19;2610802;36;20506;-70
2021/11/26 19:22:54;;;;;;;39.75;24.48;;;;;;;4.18;100.00;98389.22;2611288;36;20166;-72
2021/11/26 19:25:22;;;;;;;36.55;22.48;;;;;;;4.13;100.00;98382.69;2610963;36;20096;-70
2021/11/26 19:27:52;;;;;;;33.83;20.88;;;;;;;4.09;100.00;98376.81;2611577;36;20810;-72
2021/11/26 19:30:20;;;;;;;34.80;21.33;;;;;;;4.04;100.00;98373.78;2612232;36;20034;-70
2021/11/26 19:35:30;;;;;;;34.17;20.35;;;;;;;4.10;100.00;98373.16;2612982;54;20137;-69
2021/11/26 19:37:59;;;;;;;34.70;21.67;;;;;;;4.09;100.00;98371.50;2612005;36;20052;-70
2021/11/26 19:40:29;;;;;;;30.40;18.50;;;;;;;4.00;100.00;98357.28;2613854;31;20532;-70
2021/11/26 19:42:59;;;;;;;34.35;20.45;;;;;;;3.96;100.00;98358.63;2612321;36;20575;-69
2021/11/26 19:45:28;;;;;;;34.58;20.45;;;;;;;3.97;100.00;98356.78;2612041;36;20176;-69
2021/11/26 19:47:56;;;;;;;37.53;21.45;;;;;;;3.94;100.00;98359.75;2612053;36;20070;-70
2021/11/26 19:50:26;;;;;;;38.50;22.25;;;;;;;3.93;100.00;98347.44;2611726;36;20061;-70
2021/11/26 19:52:56;;;;;;;43.50;26.85;;;;;;;3.93;100.00;98344.75;2611645;36;20046;-70
2021/11/26 19:55:26;;;;;;;46.08;26.20;;;;;;;3.86;100.00;98345.41;2612134;36;20557;-69
2021/11/26 19:57:56;;;;;;;48.05;27.80;;;;;;;3.85;100.00;98342.88;2612074;36;20041;-69
2021/11/26 20:00:28;;;;;;;51.28;29.23;;;;;;;3.84;100.00;98342.06;2611841;36;20621;-69
2021/11/26 20:02:57;;;;;;;53.72;30.10;;;;;;;3.81;100.00;98345.03;2611386;36;20031;-71
2021/11/26 20:05:26;;;;;;;50.00;30.15;;;;;;;3.82;100.00;98346.69;2612124;36;20746;-69
2021/11/26 20:07:57;;;;;;;49.95;30.15;;;;;;;3.84;100.00;98350.06;2611983;36;20700;-70
2021/11/26 20:10:26;;;;;;;51.75;30.00;;;;;;;3.84;100.00;98347.38;2612300;36;20066;-70
2021/11/26 20:12:54;;;;;;;51.72;29.23;;;;;;;3.83;100.00;98347.53;2611311;36;20125;-69
2021/11/26 20:15:23;;;;;;;61.55;32.67;;;;;;;3.83;100.00;98340.38;2612587;36;20242;-70
2021/11/26 20:17:52;;;;;;;54.10;31.30;;;;;;;3.83;100.00;98351.03;2612061;36;20469;-70
2021/11/26 20:20:23;;;;;;;51.57;30.97;;;;;;;3.80;100.00;98348.69;2612241;36;20507;-68
2021/11/26 20:22:52;;;;;;;56.83;31.35;;;;;;;3.83;100.00;98351.03;2612097;31;20581;-70
2021/11/26 20:25:22;;;;;;;54.92;30.23;;;;;;;3.86;100.00;98347.22;2611950;36;20061;-70
2021/11/26 20:27:51;;;;;;;51.83;28.27;;;;;;;3.82;100.00;98346.69;2611995;31;20076;-70
2021/11/26 20:30:23;;;;;;;46.97;27.17;;;;;;;3.83;100.00;98343.03;2611963;36;20050;-70
2021/11/26 20:32:52;;;;;;;49.47;27.27;;;;;;;3.94;100.00;98336.63;2612027;36;20122;-70
2021/11/26 20:35:20;;;;;;;49.47;27.48;;;;;;;3.84;100.00;98330.56;2611940;36;20042;-70
2021/11/26 20:37:49;;;;;;;45.38;25.92;;;;;;;3.76;100.00;98330.53;2611971;36;20035;-70
2021/11/26 20:40:23;;;;;;;48.88;26.88;;;;;;;3.73;100.00;98334.31;2611132;36;20076;-70
2021/11/26 20:42:54;;;;;;;45.03;24.92;;;;;;;3.70;100.00;98328.50;2610650;36;20030;-69
2021/11/26 20:45:23;;;;;;;51.17;27.42;;;;;;;3.72;100.00;98327.31;2611362;36;20038;-69
2021/11/26 20:47:51;;;;;;;49.38;25.65;;;;;;;3.79;100.00;98336.34;2612045;36;20185;-70
2021/11/26 20:50:20;;;;;;;46.78;25.40;;;;;;;3.76;100.00;98334.00;2610330;36;20159;-71
2021/11/26 20:52:49;;;;;;;48.67;25.85;;;;;;;3.73;100.00;98328.19;2612282;36;20601;-71
2021/11/26 20:55:21;;;;;;;46.05;25.75;;;;;;;3.76;100.00;98328.69;2611103;36;20034;-70
2021/11/26 20:57:50;;;;;;;55.42;27.90;;;;;;;3.74;100.00;98332.50;2611336;36;20046;-70
2021/11/26 21:00:23;;;;;;;49.03;26.33;;;;;;;3.77;100.00;98337.50;2611713;36;20053;-70
2021/11/26 21:02:52;;;;;;;52.67;28.08;;;;;;;3.73;100.00;98333.50;2612448;36;20466;-70
2021/11/26 21:05:20;;;;;;;53.92;29.70;;;;;;;3.73;100.00;98321.03;2611386;36;20121;-71
2021/11/26 21:07:49;;;;;;;54.10;29.50;;;;;;;3.72;100.00;98318.53;2612012;31;20802;-69
2021/11/26 21:10:18;;;;;;;62.50;30.98;;;;;;;3.70;100.00;98318.66;2611508;36;20031;-70
2021/11/26 21:12:47;;;;;;;56.97;29.25;;;;;;;3.75;100.00;98305.72;2611126;36;20052;-71
2021/11/26 21:15:17;;;;;;;59.93;30.57;;;;;;;3.66;100.00;98304.00;2611258;36;20168;-71
2021/11/26 21:17:49;;;;;;;57.58;30.85;;;;;;;3.61;100.00;98304.47;2611294;36;20442;-70
2021/11/26 21:20:21;;;;;;;73.57;37.08;;;;;;;3.63;100.00;98309.63;2610355;36;20030;-70
2021/11/26 21:22:56;;;;;;;65.75;33.75;;;;;;;3.62;100.00;98310.63;2611546;36;20462;-69
2021/11/26 21:25:25;;;;;;;65.00;35.72;;;;;;;3.63;100.00;98313.13;2611826;36;20038;-71
2021/11/26 21:27:54;;;;;;;59.75;32.55;;;;;;;3.61;100.00;98308.97;2613175;36;20559;-70
2021/11/26 21:30:23;;;;;;;67.07;36.40;;;;;;;3.49;100.00;98306.53;2612560;36;20526;-71
2021/11/26 21:32:56;;;;;;;58.15;29.27;;;;;;;3.46;100.00;98304.19;2612145;36;20134;-71
2021/11/26 21:35:25;;;;;;;65.40;30.92;;;;;;;3.43;100.00;98306.31;2611566;36;20056;-69
2021/11/26 21:37:54;;;;;;;62.17;29.45;;;;;;;3.37;100.00;98297.13;2611884;36;20057;-71
2021/11/26 21:40:30;;;;;;;60.80;29.40;;;;;;;3.34;100.00;98302.75;2611507;36;20058;-70
2021/11/26 21:43:26;;;;;;;54.58;28.17;;;;;;;3.41;100.00;98305.66;2611074;36;20057;-70
2021/11/26 21:45:55;;;;;;;60.85;29.42;;;;;;;3.49;100.00;98306.53;2611276;36;20050;-70
2021/11/26 21:54:08;;;;;;;65.10;32.05;;;;;;;3.47;100.00;98300.53;2610993;36;20054;-71
2021/11/26 21:59:17;;;;;;;73.45;33.05;;;;;;;3.39;100.00;98311.13;2611452;31;20451;-69
2021/11/26 22:02:03;;;;;;;70.05;32.38;;;;;;;3.37;100.00;98299.78;2612243;36;20173;-69
2021/11/26 22:04:34;;;;;;;70.57;32.88;;;;;;;3.37;100.00;98291.81;2610745;36;20038;-71
2021/11/26 22:07:10;;;;;;;76.47;34.90;;;;;;;3.41;100.00;98298.50;2612068;36;20129;-70
2021/11/26 22:09:38;;;;;;;80.90;36.83;;;;;;;3.47;100.00;98302.38;2612501;36;20579;-71
2021/11/26 22:12:07;;;;;;;82.13;37.22;;;;;;;3.48;100.00;98304.03;2612052;36;20122;-70
2021/11/26 22:17:16;;;;;;;89.05;40.42;;;;;;;3.41;100.00;98303.81;2609833;36;20030;-70
2021/11/26 22:22:27;;;;;;;78.97;35.05;;;;;;;3.49;100.00;98305.72;2611650;36;20272;-71
2021/11/26 22:24:56;;;;;;;84.55;36.15;;;;;;;3.51;100.00;98304.56;2611879;36;20634;-70
2021/11/26 22:27:24;;;;;;;79.28;34.63;;;;;;;3.55;100.00;98304.25;2612689;31;20882;-69
2021/11/26 22:29:53;;;;;;;87.32;36.92;;;;;;;3.58;100.00;98298.63;2612121;36;20125;-69
2021/11/26 22:32:24;;;;;;;86.45;36.08;;;;;;;3.57;100.00;98302.28;2612071;36;20103;-71
2021/11/26 22:38:18;;;;;;;87.35;35.83;;;;;;;3.60;100.00;98299.31;2611731;31;20031;-70
2021/11/26 22:40:50;;;;;;;83.10;35.55;;;;;;;3.60;100.00;98291.34;2612365;31;20081;-70
2021/11/26 22:46:05;;;;;;;85.40;34.10;;;;;;;3.60;100.00;98296.66;2611587;31;20037;-70
2021/11/26 22:48:33;;;;;;;83.50;34.05;;;;;;;3.60;100.00;98297.47;2611863;36;20052;-70
2021/11/26 22:56:36;;;;;;;95.93;38.45;;;;;;;3.73;100.00;98299.75;2611674;36;20034;-69
2021/11/26 22:59:08;;;;;;;92.72;37.65;;;;;;;3.71;100.00;98303.53;2611578;36;20034;-70
2021/11/26 23:01:46;;;;;;;91.20;36.08;;;;;;;3.70;100.00;98308.03;2612203;36;20041;-69
2021/11/26 23:04:22;;;;;;;85.75;36.42;;;;;;;3.74;100.00;98306.75;2611788;36;20173;-69
2021/11/26 23:06:56;;;;;;;87.10;35.17;;;;;;;3.80;100.00;98313.28;2611172;36;20525;-70
2021/11/26 23:09:27;;;;;;;94.43;35.95;;;;;;;3.81;100.00;98310.44;2611876;54;20129;-69
2021/11/26 23:11:58;;;;;;;93.75;37.10;;;;;;;3.76;100.00;98328.69;2611645;36;20153;-70